sensor_id;sensor_type;location;lat;lon;timestamp;pressure;altitude;pressure_sealevel;temperature;humidity
48156;BME280;35568;48.104;11.782;2023-05-20T00:00:26;95396.91;;;13.71;52.65
48156;BME280;35568;48.104;11.782;2023-05-20T00:02:53;95392.85;;;13.65;52.47
48156;BME280;35568;48.104;11.782;2023-05-20T00:05:20;95392.62;;;13.83;52.45
48156;BME280;35568;48.104;11.782;2023-05-20T00:07:47;95385.24;;;13.93;52.32
48156;BME280;35568;48.104;11.782;2023-05-20T00:10:14;95383.08;;;13.89;52.24
48156;BME280;35568;48.104;11.782;2023-05-20T00:12:40;95383.44;;;13.86;52.08
48156;BME280;35568;48.104;11.782;2023-05-20T00:15:08;95382.71;;;13.79;52.21
48156;BME280;35568;48.104;11.782;2023-05-20T00:17:35;95379.23;;;13.85;52.01
48156;BME280;35568;48.104;11.782;2023-05-20T00:20:02;95379.74;;;13.74;52.22
48156;BME280;35568;48.104;11.782;2023-05-20T00:22:29;95381.94;;;13.62;52.30
48156;BME280;35568;48.104;11.782;2023-05-20T00:24:56;95378.85;;;13.73;52.14
48156;BME280;35568;48.104;11.782;2023-05-20T00:27:23;95377.65;;;13.72;52.14
48156;BME280;35568;48.104;11.782;2023-05-20T00:29:49;95375.90;;;13.53;52.25
48156;BME280;35568;48.104;11.782;2023-05-20T00:32:16;95377.98;;;13.56;52.27
48156;BME280;35568;48.104;11.782;2023-05-20T00:34:44;95380.84;;;13.57;52.17
48156;BME280;35568;48.104;11.782;2023-05-20T00:37:11;95380.13;;;13.57;52.16
48156;BME280;35568;48.104;11.782;2023-05-20T00:39:38;95377.72;;;13.39;52.51
48156;BME280;35568;48.104;11.782;2023-05-20T00:42:05;95375.61;;;14.05;52.04
48156;BME280;35568;48.104;11.782;2023-05-20T00:44:31;95376.87;;;13.48;52.31
48156;BME280;35568;48.104;11.782;2023-05-20T00:46:58;95379.98;;;13.56;52.26
48156;BME280;35568;48.104;11.782;2023-05-20T00:49:25;95378.51;;;13.61;52.12
48156;BME280;35568;48.104;11.782;2023-05-20T00:51:52;95377.14;;;13.60;52.10
48156;BME280;35568;48.104;11.782;2023-05-20T00:54:19;95379.32;;;13.73;51.86
48156;BME280;35568;48.104;11.782;2023-05-20T00:56:47;95382.30;;;14.07;51.92
48156;BME280;35568;48.104;11.782;2023-05-20T00:59:14;95381.50;;;13.72;51.72
48156;BME280;35568;48.104;11.782;2023-05-20T01:01:42;95380.79;;;13.82;52.00
48156;BME280;35568;48.104;11.782;2023-05-20T01:04:08;95376.77;;;13.49;52.24
48156;BME280;35568;48.104;11.782;2023-05-20T01:06:35;95376.71;;;13.62;52.12
48156;BME280;35568;48.104;11.782;2023-05-20T01:09:02;95374.64;;;13.56;52.27
48156;BME280;35568;48.104;11.782;2023-05-20T01:11:33;95372.94;;;13.66;51.99
48156;BME280;35568;48.104;11.782;2023-05-20T01:14:06;95373.82;;;13.96;52.02
48156;BME280;35568;48.104;11.782;2023-05-20T01:16:34;95370.19;;;13.79;52.05
48156;BME280;35568;48.104;11.782;2023-05-20T01:19:05;95366.72;;;13.70;52.14
48156;BME280;35568;48.104;11.782;2023-05-20T01:21:38;95360.24;;;13.65;52.35
48156;BME280;35568;48.104;11.782;2023-05-20T01:24:05;95355.67;;;13.75;52.22
48156;BME280;35568;48.104;11.782;2023-05-20T01:26:32;95354.76;;;14.10;52.33
48156;BME280;35568;48.104;11.782;2023-05-20T01:29:00;95358.81;;;13.62;52.43
48156;BME280;35568;48.104;11.782;2023-05-20T01:31:31;95359.83;;;13.68;52.30
48156;BME280;35568;48.104;11.782;2023-05-20T01:33:59;95355.04;;;13.49;52.55
48156;BME280;35568;48.104;11.782;2023-05-20T01:36:27;95353.94;;;13.54;52.52
48156;BME280;35568;48.104;11.782;2023-05-20T01:38:55;95354.34;;;13.58;52.46
48156;BME280;35568;48.104;11.782;2023-05-20T01:41:24;95356.28;;;13.69;52.25
48156;BME280;35568;48.104;11.782;2023-05-20T01:43:52;95359.92;;;13.55;52.27
48156;BME280;35568;48.104;11.782;2023-05-20T01:46:21;95359.45;;;13.55;52.49
48156;BME280;35568;48.104;11.782;2023-05-20T01:48:47;95355.11;;;13.77;52.48
48156;BME280;35568;48.104;11.782;2023-05-20T01:51:14;95350.11;;;13.44;52.58
48156;BME280;35568;48.104;11.782;2023-05-20T01:53:42;95348.65;;;13.37;52.68
48156;BME280;35568;48.104;11.782;2023-05-20T01:56:08;95348.98;;;13.40;52.78
48156;BME280;35568;48.104;11.782;2023-05-20T01:58:35;95349.15;;;13.63;52.83
48156;BME280;35568;48.104;11.782;2023-05-20T02:01:02;95346.68;;;13.29;52.89
48156;BME280;35568;48.104;11.782;2023-05-20T02:03:29;95345.87;;;13.22;53.23
48156;BME280;35568;48.104;11.782;2023-05-20T02:05:55;95345.53;;;13.15;53.32
48156;BME280;35568;48.104;11.782;2023-05-20T02:08:22;95341.14;;;13.22;53.34
48156;BME280;35568;48.104;11.782;2023-05-20T02:10:49;95340.29;;;13.36;53.11
48156;BME280;35568;48.104;11.782;2023-05-20T02:13:16;95339.63;;;13.41;53.04
48156;BME280;35568;48.104;11.782;2023-05-20T02:15:42;95340.50;;;13.35;53.07
48156;BME280;35568;48.104;11.782;2023-05-20T02:18:09;95340.19;;;13.41;53.18
48156;BME280;35568;48.104;11.782;2023-05-20T02:20:36;95339.81;;;12.98;53.37
48156;BME280;35568;48.104;11.782;2023-05-20T02:23:03;95341.58;;;12.85;54.16
48156;BME280;35568;48.104;11.782;2023-05-20T02:25:30;95342.45;;;13.40;54.03
48156;BME280;35568;48.104;11.782;2023-05-20T02:27:57;95346.47;;;12.97;54.11
48156;BME280;35568;48.104;11.782;2023-05-20T02:30:24;95349.43;;;13.35;54.52
48156;BME280;35568;48.104;11.782;2023-05-20T02:32:52;95349.99;;;12.99;54.58
48156;BME280;35568;48.104;11.782;2023-05-20T02:35:18;95348.78;;;13.18;54.71
48156;BME280;35568;48.104;11.782;2023-05-20T02:37:46;95344.44;;;13.03;54.63
48156;BME280;35568;48.104;11.782;2023-05-20T02:40:13;95341.70;;;13.18;55.06
48156;BME280;35568;48.104;11.782;2023-05-20T02:42:40;95338.70;;;13.09;55.28
48156;BME280;35568;48.104;11.782;2023-05-20T02:45:08;95337.43;;;13.20;55.08
48156;BME280;35568;48.104;11.782;2023-05-20T02:47:34;95335.55;;;13.50;54.82
48156;BME280;35568;48.104;11.782;2023-05-20T02:50:01;95335.27;;;13.25;55.09
48156;BME280;35568;48.104;11.782;2023-05-20T02:52:28;95335.80;;;13.14;54.83
48156;BME280;35568;48.104;11.782;2023-05-20T02:54:56;95332.98;;;13.02;55.15
48156;BME280;35568;48.104;11.782;2023-05-20T02:57:23;95331.17;;;13.18;55.01
48156;BME280;35568;48.104;11.782;2023-05-20T02:59:50;95334.48;;;13.52;54.73
48156;BME280;35568;48.104;11.782;2023-05-20T03:03:01;95334.74;;;13.51;54.28
48156;BME280;35568;48.104;11.782;2023-05-20T03:05:28;95340.62;;;13.43;54.08
48156;BME280;35568;48.104;11.782;2023-05-20T03:07:55;95340.99;;;13.38;54.20
48156;BME280;35568;48.104;11.782;2023-05-20T03:10:22;95345.89;;;13.31;54.27
48156;BME280;35568;48.104;11.782;2023-05-20T03:12:48;95342.38;;;13.58;54.18
48156;BME280;35568;48.104;11.782;2023-05-20T03:15:15;95342.70;;;13.89;54.30
48156;BME280;35568;48.104;11.782;2023-05-20T03:17:42;95343.94;;;13.48;54.08
48156;BME280;35568;48.104;11.782;2023-05-20T03:20:10;95347.36;;;13.30;54.40
48156;BME280;35568;48.104;11.782;2023-05-20T03:22:37;95347.09;;;13.36;54.39
48156;BME280;35568;48.104;11.782;2023-05-20T03:25:05;95346.65;;;14.03;54.07
48156;BME280;35568;48.104;11.782;2023-05-20T03:27:31;95340.96;;;13.52;54.11
48156;BME280;35568;48.104;11.782;2023-05-20T03:29:59;95337.21;;;13.62;53.87
48156;BME280;35568;48.104;11.782;2023-05-20T03:32:26;95331.61;;;13.50;54.13
48156;BME280;35568;48.104;11.782;2023-05-20T03:34:53;95331.78;;;13.53;54.01
48156;BME280;35568;48.104;11.782;2023-05-20T03:37:20;95331.34;;;13.50;53.92
48156;BME280;35568;48.104;11.782;2023-05-20T03:39:47;95333.62;;;13.37;54.18
48156;BME280;35568;48.104;11.782;2023-05-20T03:42:14;95336.17;;;13.36;54.22
48156;BME280;35568;48.104;11.782;2023-05-20T03:44:41;95340.66;;;13.44;54.39
48156;BME280;35568;48.104;11.782;2023-05-20T03:47:07;95339.26;;;12.90;54.68
48156;BME280;35568;48.104;11.782;2023-05-20T03:49:34;95344.05;;;13.43;54.85
48156;BME280;35568;48.104;11.782;2023-05-20T03:52:01;95344.99;;;12.98;54.92
48156;BME280;35568;48.104;11.782;2023-05-20T03:54:29;95348.01;;;13.07;54.56
48156;BME280;35568;48.104;11.782;2023-05-20T03:56:55;95346.92;;;13.20;54.64
48156;BME280;35568;48.104;11.782;2023-05-20T03:59:22;95349.16;;;13.34;54.43
48156;BME280;35568;48.104;11.782;2023-05-20T04:01:49;95352.95;;;13.43;54.34
48156;BME280;35568;48.104;11.782;2023-05-20T04:04:15;95349.62;;;13.45;54.59
48156;BME280;35568;48.104;11.782;2023-05-20T04:06:42;95349.45;;;13.24;54.39
48156;BME280;35568;48.104;11.782;2023-05-20T04:09:09;95350.66;;;13.16;54.49
48156;BME280;35568;48.104;11.782;2023-05-20T04:11:36;95350.66;;;13.35;54.67
48156;BME280;35568;48.104;11.782;2023-05-20T04:14:03;95347.58;;;13.26;54.80
48156;BME280;35568;48.104;11.782;2023-05-20T04:16:30;95341.16;;;13.70;54.52
48156;BME280;35568;48.104;11.782;2023-05-20T04:18:57;95341.99;;;13.37;54.42
48156;BME280;35568;48.104;11.782;2023-05-20T04:21:24;95344.37;;;13.32;54.43
48156;BME280;35568;48.104;11.782;2023-05-20T04:23:51;95348.12;;;13.42;54.23
48156;BME280;35568;48.104;11.782;2023-05-20T04:26:17;95349.51;;;13.35;54.49
48156;BME280;35568;48.104;11.782;2023-05-20T04:28:44;95345.85;;;13.38;54.14
48156;BME280;35568;48.104;11.782;2023-05-20T04:31:11;95342.83;;;13.36;54.29
48156;BME280;35568;48.104;11.782;2023-05-20T04:33:38;95339.00;;;13.52;54.57
48156;BME280;35568;48.104;11.782;2023-05-20T04:36:08;95333.67;;;13.93;54.24
48156;BME280;35568;48.104;11.782;2023-05-20T04:38:35;95337.79;;;13.26;54.52
48156;BME280;35568;48.104;11.782;2023-05-20T04:41:03;95334.14;;;13.52;54.68
48156;BME280;35568;48.104;11.782;2023-05-20T04:43:31;95328.71;;;13.67;54.82
48156;BME280;35568;48.104;11.782;2023-05-20T04:45:58;95326.47;;;13.11;55.17
48156;BME280;35568;48.104;11.782;2023-05-20T04:48:25;95329.87;;;13.24;55.27
48156;BME280;35568;48.104;11.782;2023-05-20T04:50:52;95334.33;;;13.52;55.27
48156;BME280;35568;48.104;11.782;2023-05-20T04:53:19;95341.86;;;13.30;55.18
48156;BME280;35568;48.104;11.782;2023-05-20T04:55:47;95347.30;;;13.24;55.27
48156;BME280;35568;48.104;11.782;2023-05-20T04:58:15;95347.59;;;13.40;55.26
48156;BME280;35568;48.104;11.782;2023-05-20T05:00:42;95347.70;;;13.32;55.46
48156;BME280;35568;48.104;11.782;2023-05-20T05:03:09;95344.15;;;13.06;55.60
48156;BME280;35568;48.104;11.782;2023-05-20T05:05:36;95340.33;;;13.50;55.25
48156;BME280;35568;48.104;11.782;2023-05-20T05:08:03;95335.03;;;13.10;55.40
48156;BME280;35568;48.104;11.782;2023-05-20T05:10:31;95330.74;;;13.31;55.16
48156;BME280;35568;48.104;11.782;2023-05-20T05:12:58;95328.55;;;13.46;55.02
48156;BME280;35568;48.104;11.782;2023-05-20T05:15:25;95326.21;;;13.31;55.36
48156;BME280;35568;48.104;11.782;2023-05-20T05:17:53;95328.98;;;13.58;55.01
48156;BME280;35568;48.104;11.782;2023-05-20T05:20:19;95337.06;;;13.67;54.80
48156;BME280;35568;48.104;11.782;2023-05-20T05:22:46;95333.62;;;14.08;54.61
48156;BME280;35568;48.104;11.782;2023-05-20T05:25:13;95333.46;;;13.73;54.69
48156;BME280;35568;48.104;11.782;2023-05-20T05:27:40;95330.70;;;13.72;54.72
48156;BME280;35568;48.104;11.782;2023-05-20T05:30:08;95331.47;;;13.74;54.71
48156;BME280;35568;48.104;11.782;2023-05-20T05:32:36;95327.20;;;13.77;54.64
48156;BME280;35568;48.104;11.782;2023-05-20T05:35:03;95325.53;;;13.83;54.53
48156;BME280;35568;48.104;11.782;2023-05-20T05:37:30;95323.99;;;13.79;54.51
48156;BME280;35568;48.104;11.782;2023-05-20T05:39:57;95323.91;;;12.83;54.37
48156;BME280;35568;48.104;11.782;2023-05-20T05:42:25;95326.22;;;13.87;53.86
48156;BME280;35568;48.104;11.782;2023-05-20T05:44:52;95326.28;;;13.96;54.27
48156;BME280;35568;48.104;11.782;2023-05-20T05:47:19;95324.75;;;13.16;54.60
48156;BME280;35568;48.104;11.782;2023-05-20T05:49:46;95321.26;;;13.21;54.85
48156;BME280;35568;48.104;11.782;2023-05-20T05:52:13;95325.25;;;13.32;54.25
48156;BME280;35568;48.104;11.782;2023-05-20T05:54:40;95327.93;;;13.17;54.54
48156;BME280;35568;48.104;11.782;2023-05-20T05:57:07;95331.87;;;13.42;54.42
48156;BME280;35568;48.104;11.782;2023-05-20T05:59:34;95328.91;;;13.16;54.38
48156;BME280;35568;48.104;11.782;2023-05-20T06:02:01;95331.31;;;13.72;53.89
48156;BME280;35568;48.104;11.782;2023-05-20T06:04:27;95333.89;;;13.72;53.49
48156;BME280;35568;48.104;11.782;2023-05-20T06:06:54;95333.45;;;13.59;53.83
48156;BME280;35568;48.104;11.782;2023-05-20T06:09:21;95329.68;;;12.85;53.60
48156;BME280;35568;48.104;11.782;2023-05-20T06:11:48;95335.81;;;14.16;52.60
48156;BME280;35568;48.104;11.782;2023-05-20T06:14:15;95336.42;;;14.28;52.53
48156;BME280;35568;48.104;11.782;2023-05-20T06:16:42;95335.64;;;14.40;52.64
48156;BME280;35568;48.104;11.782;2023-05-20T06:19:09;95335.73;;;14.39;52.64
48156;BME280;35568;48.104;11.782;2023-05-20T06:21:36;95332.91;;;14.51;52.11
48156;BME280;35568;48.104;11.782;2023-05-20T06:24:03;95333.08;;;14.67;51.83
48156;BME280;35568;48.104;11.782;2023-05-20T06:26:30;95328.15;;;14.63;51.58
48156;BME280;35568;48.104;11.782;2023-05-20T06:28:59;95326.59;;;14.58;51.70
48156;BME280;35568;48.104;11.782;2023-05-20T06:31:26;95325.23;;;14.75;51.45
48156;BME280;35568;48.104;11.782;2023-05-20T06:33:53;95319.93;;;14.96;51.09
48156;BME280;35568;48.104;11.782;2023-05-20T06:36:20;95323.16;;;14.91;50.59
48156;BME280;35568;48.104;11.782;2023-05-20T06:38:47;95322.63;;;14.41;50.96
48156;BME280;35568;48.104;11.782;2023-05-20T06:41:14;95325.61;;;14.58;51.31
48156;BME280;35568;48.104;11.782;2023-05-20T06:43:41;95325.68;;;14.45;51.13
48156;BME280;35568;48.104;11.782;2023-05-20T06:46:08;95321.64;;;14.66;50.99
48156;BME280;35568;48.104;11.782;2023-05-20T06:48:35;95321.19;;;14.58;50.72
48156;BME280;35568;48.104;11.782;2023-05-20T06:51:06;95319.54;;;15.13;50.12
48156;BME280;35568;48.104;11.782;2023-05-20T06:53:34;95322.10;;;15.43;49.36
48156;BME280;35568;48.104;11.782;2023-05-20T06:56:01;95330.57;;;15.70;49.26
48156;BME280;35568;48.104;11.782;2023-05-20T06:58:28;95322.11;;;16.02;48.80
48156;BME280;35568;48.104;11.782;2023-05-20T07:00:55;95311.66;;;15.65;48.27
48156;BME280;35568;48.104;11.782;2023-05-20T07:03:22;95308.91;;;16.59;47.93
48156;BME280;35568;48.104;11.782;2023-05-20T07:05:50;95309.63;;;16.29;47.42
48156;BME280;35568;48.104;11.782;2023-05-20T07:08:17;95320.27;;;16.72;47.02
48156;BME280;35568;48.104;11.782;2023-05-20T07:10:44;95321.78;;;16.81;47.18
48156;BME280;35568;48.104;11.782;2023-05-20T07:13:11;95315.63;;;17.06;46.23
48156;BME280;35568;48.104;11.782;2023-05-20T07:15:38;95310.82;;;17.16;45.65
48156;BME280;35568;48.104;11.782;2023-05-20T07:18:05;95310.99;;;17.67;45.58
48156;BME280;35568;48.104;11.782;2023-05-20T07:20:32;95311.72;;;17.29;44.94
48156;BME280;35568;48.104;11.782;2023-05-20T07:22:59;95308.12;;;17.42;44.52
48156;BME280;35568;48.104;11.782;2023-05-20T07:25:27;95304.23;;;17.89;44.10
48156;BME280;35568;48.104;11.782;2023-05-20T07:27:54;95305.26;;;17.78;44.10
48156;BME280;35568;48.104;11.782;2023-05-20T07:30:21;95302.51;;;18.24;44.75
48156;BME280;35568;48.104;11.782;2023-05-20T07:32:48;95299.34;;;18.45;43.68
48156;BME280;35568;48.104;11.782;2023-05-20T07:35:15;95299.18;;;19.04;41.94
48156;BME280;35568;48.104;11.782;2023-05-20T07:37:42;95298.03;;;19.14;41.81
48156;BME280;35568;48.104;11.782;2023-05-20T07:40:10;95295.56;;;19.89;41.15
48156;BME280;35568;48.104;11.782;2023-05-20T07:42:37;95288.74;;;19.84;40.53
48156;BME280;35568;48.104;11.782;2023-05-20T07:45:05;95288.85;;;20.49;39.59
48156;BME280;35568;48.104;11.782;2023-05-20T07:47:33;95286.29;;;20.23;39.74
48156;BME280;35568;48.104;11.782;2023-05-20T07:50:00;95287.37;;;20.25;39.46
48156;BME280;35568;48.104;11.782;2023-05-20T07:52:27;95282.53;;;19.79;40.16
48156;BME280;35568;48.104;11.782;2023-05-20T07:54:53;95282.91;;;19.61;41.06
48156;BME280;35568;48.104;11.782;2023-05-20T07:57:21;95282.82;;;20.34;40.47
48156;BME280;35568;48.104;11.782;2023-05-20T07:59:48;95278.46;;;21.02;39.58
48156;BME280;35568;48.104;11.782;2023-05-20T08:02:15;95276.31;;;20.66;38.55
48156;BME280;35568;48.104;11.782;2023-05-20T08:04:41;95278.66;;;21.16;38.90
48156;BME280;35568;48.104;11.782;2023-05-20T08:07:08;95279.35;;;21.30;38.48
48156;BME280;35568;48.104;11.782;2023-05-20T08:09:35;95275.64;;;21.42;37.96
48156;BME280;35568;48.104;11.782;2023-05-20T08:12:02;95270.95;;;21.98;36.80
48156;BME280;35568;48.104;11.782;2023-05-20T08:14:29;95266.80;;;21.78;36.49
48156;BME280;35568;48.104;11.782;2023-05-20T08:16:56;95266.74;;;21.25;37.06
48156;BME280;35568;48.104;11.782;2023-05-20T08:19:23;95262.74;;;21.71;36.54
48156;BME280;35568;48.104;11.782;2023-05-20T08:21:50;95256.13;;;22.45;35.03
48156;BME280;35568;48.104;11.782;2023-05-20T08:24:17;95254.46;;;22.82;34.50
48156;BME280;35568;48.104;11.782;2023-05-20T08:26:43;95256.75;;;22.18;33.66
48156;BME280;35568;48.104;11.782;2023-05-20T08:29:10;95260.78;;;22.29;33.48
48156;BME280;35568;48.104;11.782;2023-05-20T08:31:37;95261.36;;;22.02;34.20
48156;BME280;35568;48.104;11.782;2023-05-20T08:34:04;95261.64;;;22.21;34.55
48156;BME280;35568;48.104;11.782;2023-05-20T08:36:30;95260.24;;;22.39;34.41
48156;BME280;35568;48.104;11.782;2023-05-20T08:38:57;95262.11;;;23.11;33.75
48156;BME280;35568;48.104;11.782;2023-05-20T08:41:24;95259.34;;;22.84;33.48
48156;BME280;35568;48.104;11.782;2023-05-20T08:43:51;95255.61;;;23.04;33.49
48156;BME280;35568;48.104;11.782;2023-05-20T08:46:19;95253.14;;;22.91;33.02
48156;BME280;35568;48.104;11.782;2023-05-20T08:48:48;95259.23;;;23.13;33.16
48156;BME280;35568;48.104;11.782;2023-05-20T08:51:15;95257.32;;;23.71;32.62
48156;BME280;35568;48.104;11.782;2023-05-20T08:53:43;95257.04;;;23.07;32.65
48156;BME280;35568;48.104;11.782;2023-05-20T08:56:10;95254.13;;;23.09;32.53
48156;BME280;35568;48.104;11.782;2023-05-20T08:58:38;95253.90;;;22.76;31.91
48156;BME280;35568;48.104;11.782;2023-05-20T09:01:05;95256.07;;;23.50;32.11
48156;BME280;35568;48.104;11.782;2023-05-20T09:03:32;95252.85;;;23.77;31.77
48156;BME280;35568;48.104;11.782;2023-05-20T09:06:03;95252.15;;;23.38;32.24
48156;BME280;35568;48.104;11.782;2023-05-20T09:08:31;95252.11;;;22.75;32.20
48156;BME280;35568;48.104;11.782;2023-05-20T09:10:59;95253.27;;;23.05;32.63
48156;BME280;35568;48.104;11.782;2023-05-20T09:13:28;95252.83;;;23.76;31.69
48156;BME280;35568;48.104;11.782;2023-05-20T09:15:56;95252.21;;;24.38;30.98
48156;BME280;35568;48.104;11.782;2023-05-20T09:18:25;95249.63;;;24.23;30.77
48156;BME280;35568;48.104;11.782;2023-05-20T09:20:52;95250.79;;;24.42;31.07
48156;BME280;35568;48.104;11.782;2023-05-20T09:23:19;95253.47;;;24.61;30.80
48156;BME280;35568;48.104;11.782;2023-05-20T09:25:48;95254.09;;;25.08;30.76
48156;BME280;35568;48.104;11.782;2023-05-20T09:28:17;95252.16;;;25.49;30.70
48156;BME280;35568;48.104;11.782;2023-05-20T09:30:48;95252.72;;;25.59;30.18
48156;BME280;35568;48.104;11.782;2023-05-20T09:33:15;95246.05;;;25.64;29.77
48156;BME280;35568;48.104;11.782;2023-05-20T09:35:41;95245.38;;;25.95;29.68
48156;BME280;35568;48.104;11.782;2023-05-20T09:38:10;95246.71;;;25.86;29.39
48156;BME280;35568;48.104;11.782;2023-05-20T09:40:38;95244.92;;;25.73;29.60
48156;BME280;35568;48.104;11.782;2023-05-20T09:43:07;95241.65;;;26.78;29.66
48156;BME280;35568;48.104;11.782;2023-05-20T09:45:34;95240.47;;;26.94;28.22
48156;BME280;35568;48.104;11.782;2023-05-20T09:48:01;95241.85;;;26.55;28.09
48156;BME280;35568;48.104;11.782;2023-05-20T09:50:29;95243.75;;;25.32;28.72
48156;BME280;35568;48.104;11.782;2023-05-20T09:53:01;95239.85;;;24.77;29.80
48156;BME280;35568;48.104;11.782;2023-05-20T09:55:29;95238.59;;;24.73;29.85
48156;BME280;35568;48.104;11.782;2023-05-20T09:58:01;95236.80;;;24.47;30.07
48156;BME280;35568;48.104;11.782;2023-05-20T10:00:29;95232.47;;;24.23;30.74
48156;BME280;35568;48.104;11.782;2023-05-20T10:02:56;95227.70;;;24.07;31.28
48156;BME280;35568;48.104;11.782;2023-05-20T10:05:26;95226.15;;;23.85;31.66
48156;BME280;35568;48.104;11.782;2023-05-20T10:08:28;95223.58;;;23.68;31.28
48156;BME280;35568;48.104;11.782;2023-05-20T10:11:07;95222.38;;;23.83;31.46
48156;BME280;35568;48.104;11.782;2023-05-20T10:13:48;95222.66;;;23.96;31.49
48156;BME280;35568;48.104;11.782;2023-05-20T10:16:25;95222.22;;;24.65;30.92
48156;BME280;35568;48.104;11.782;2023-05-20T10:19:03;95222.83;;;25.56;30.35
48156;BME280;35568;48.104;11.782;2023-05-20T10:21:32;95222.24;;;25.21;29.74
48156;BME280;35568;48.104;11.782;2023-05-20T10:24:05;95219.59;;;24.52;30.20
48156;BME280;35568;48.104;11.782;2023-05-20T10:26:34;95219.69;;;25.08;30.25
48156;BME280;35568;48.104;11.782;2023-05-20T10:29:13;95218.08;;;26.02;30.04
48156;BME280;35568;48.104;11.782;2023-05-20T10:31:43;95209.24;;;26.77;28.69
48156;BME280;35568;48.104;11.782;2023-05-20T10:34:14;95207.64;;;26.80;28.56
48156;BME280;35568;48.104;11.782;2023-05-20T10:36:44;95201.46;;;26.90;27.82
48156;BME280;35568;48.104;11.782;2023-05-20T10:39:15;95196.97;;;26.64;28.13
48156;BME280;35568;48.104;11.782;2023-05-20T10:41:42;95198.58;;;26.30;28.08
48156;BME280;35568;48.104;11.782;2023-05-20T10:44:09;95197.75;;;26.86;28.10
48156;BME280;35568;48.104;11.782;2023-05-20T10:46:35;95194.75;;;26.88;28.09
48156;BME280;35568;48.104;11.782;2023-05-20T10:49:02;95193.41;;;27.21;27.36
48156;BME280;35568;48.104;11.782;2023-05-20T10:51:30;95194.86;;;27.67;27.23
48156;BME280;35568;48.104;11.782;2023-05-20T10:53:57;95188.16;;;27.31;27.38
48156;BME280;35568;48.104;11.782;2023-05-20T10:56:25;95185.41;;;28.68;26.80
48156;BME280;35568;48.104;11.782;2023-05-20T10:58:53;95182.74;;;29.59;24.92
48156;BME280;35568;48.104;11.782;2023-05-20T11:01:23;95189.21;;;29.66;25.62
48156;BME280;35568;48.104;11.782;2023-05-20T11:03:50;95181.09;;;29.83;24.86
48156;BME280;35568;48.104;11.782;2023-05-20T11:06:18;95175.43;;;29.69;23.39
48156;BME280;35568;48.104;11.782;2023-05-20T11:08:45;95172.55;;;29.82;24.09
48156;BME280;35568;48.104;11.782;2023-05-20T11:11:13;95173.98;;;30.50;23.39
48156;BME280;35568;48.104;11.782;2023-05-20T11:13:40;95175.83;;;29.54;23.40
48156;BME280;35568;48.104;11.782;2023-05-20T11:16:08;95170.02;;;29.42;23.52
48156;BME280;35568;48.104;11.782;2023-05-20T11:18:35;95168.90;;;29.56;23.91
48156;BME280;35568;48.104;11.782;2023-05-20T11:21:01;95172.04;;;29.10;23.90
48156;BME280;35568;48.104;11.782;2023-05-20T11:23:29;95167.82;;;29.43;23.58
48156;BME280;35568;48.104;11.782;2023-05-20T11:25:57;95164.50;;;29.62;23.23
48156;BME280;35568;48.104;11.782;2023-05-20T11:28:24;95156.73;;;29.59;23.81
48156;BME280;35568;48.104;11.782;2023-05-20T11:30:52;95149.66;;;29.59;24.26
48156;BME280;35568;48.104;11.782;2023-05-20T11:33:19;95151.83;;;29.55;24.44
48156;BME280;35568;48.104;11.782;2023-05-20T11:35:47;95147.00;;;29.12;24.47
48156;BME280;35568;48.104;11.782;2023-05-20T11:38:15;95147.26;;;29.66;24.42
48156;BME280;35568;48.104;11.782;2023-05-20T11:40:43;95148.27;;;29.21;24.55
48156;BME280;35568;48.104;11.782;2023-05-20T11:43:10;95145.23;;;29.12;25.11
48156;BME280;35568;48.104;11.782;2023-05-20T11:45:54;95137.55;;;29.19;25.03
48156;BME280;35568;48.104;11.782;2023-05-20T11:48:23;95140.79;;;29.29;24.48
48156;BME280;35568;48.104;11.782;2023-05-20T11:50:52;95135.25;;;29.49;25.13
48156;BME280;35568;48.104;11.782;2023-05-20T11:53:20;95137.83;;;30.44;24.49
48156;BME280;35568;48.104;11.782;2023-05-20T11:55:49;95134.81;;;30.70;23.23
48156;BME280;35568;48.104;11.782;2023-05-20T11:58:18;95129.10;;;30.70;22.84
48156;BME280;35568;48.104;11.782;2023-05-20T12:00:45;95126.42;;;31.10;22.18
48156;BME280;35568;48.104;11.782;2023-05-20T12:03:13;95122.48;;;30.82;21.51
48156;BME280;35568;48.104;11.782;2023-05-20T12:05:40;95126.96;;;30.76;22.25
48156;BME280;35568;48.104;11.782;2023-05-20T12:08:08;95124.79;;;29.86;22.56
48156;BME280;35568;48.104;11.782;2023-05-20T12:10:35;95133.14;;;28.10;23.52
48156;BME280;35568;48.104;11.782;2023-05-20T12:13:01;95125.04;;;27.58;24.41
48156;BME280;35568;48.104;11.782;2023-05-20T12:15:28;95126.38;;;28.06;24.96
48156;BME280;35568;48.104;11.782;2023-05-20T12:17:55;95128.20;;;28.51;24.01
48156;BME280;35568;48.104;11.782;2023-05-20T12:20:23;95124.71;;;28.18;24.21
48156;BME280;35568;48.104;11.782;2023-05-20T12:22:50;95125.13;;;27.73;24.69
48156;BME280;35568;48.104;11.782;2023-05-20T12:25:18;95124.71;;;28.40;24.85
48156;BME280;35568;48.104;11.782;2023-05-20T12:27:46;95119.91;;;28.70;24.35
48156;BME280;35568;48.104;11.782;2023-05-20T12:30:15;95121.77;;;27.95;24.50
48156;BME280;35568;48.104;11.782;2023-05-20T12:32:42;95122.69;;;28.43;24.63
48156;BME280;35568;48.104;11.782;2023-05-20T12:35:10;95123.61;;;29.04;25.11
48156;BME280;35568;48.104;11.782;2023-05-20T12:37:38;95123.36;;;28.65;25.49
48156;BME280;35568;48.104;11.782;2023-05-20T12:40:06;95123.26;;;28.69;25.55
48156;BME280;35568;48.104;11.782;2023-05-20T12:42:34;95119.97;;;27.87;26.07
48156;BME280;35568;48.104;11.782;2023-05-20T12:45:01;95125.54;;;27.71;26.23
48156;BME280;35568;48.104;11.782;2023-05-20T12:47:28;95126.74;;;27.96;26.96
48156;BME280;35568;48.104;11.782;2023-05-20T12:49:55;95124.93;;;27.59;26.99
48156;BME280;35568;48.104;11.782;2023-05-20T12:52:22;95123.02;;;27.82;26.59